Time;durP1;ratioP1;P1;durP2;ratioP2;P2;SDS_P1;SDS_P2;PMS_P1;PMS_P2;Temp;Humidity;BMP_temperature;BMP_pressure;BME280_temperature;BME280_humidity;BME280_pressure;Samples;Min_cycle;Max_cycle;Signal;HPM_P1;HPM_P2
2022/04/28 00:01:57;;;;;;;3.00;2.75;;;;;;;8.06;68.78;99447.69;4069251;29;20212;-65
2022/04/28 00:03:59;;;;;;;3.75;3.33;;;;;;;8.04;68.26;99455.25;4053585;29;20204;-65
2022/04/28 00:06:00;;;;;;;3.58;3.38;;;;;;;8.06;68.32;99447.69;4068424;29;20228;-65
2022/04/28 00:08:02;;;;;;;2.88;2.67;;;;;;;8.04;68.14;99455.25;4070131;29;20330;-66
2022/04/28 00:10:05;;;;;;;2.42;2.22;;;;;;;8.06;68.37;99448.56;4074852;29;20663;-65
2022/04/28 00:12:10;;;;;;;2.35;2.13;;;;;;;7.98;68.02;99451.50;4068719;29;20587;-66
2022/04/28 00:14:11;;;;;;;2.83;2.63;;;;;;;7.93;68.40;99458.59;4072987;29;20215;-66
2022/04/28 00:16:13;;;;;;;2.92;2.72;;;;;;;7.90;68.58;99456.31;4067999;29;20227;-66
2022/04/28 00:18:15;;;;;;;2.80;2.55;;;;;;;7.85;68.27;99453.38;4070130;29;20591;-66
2022/04/28 00:20:16;;;;;;;3.35;3.15;;;;;;;7.85;68.45;99456.97;4070203;29;20212;-66
2022/04/28 00:22:21;;;;;;;2.90;2.70;;;;;;;7.79;68.19;99456.94;4067725;29;20211;-66
2022/04/28 00:24:23;;;;;;;2.70;2.50;;;;;;;7.76;68.76;99462.81;4070902;29;20299;-65
2022/04/28 00:26:24;;;;;;;3.33;3.03;;;;;;;7.71;69.12;99454.44;4069681;29;20219;-65
2022/04/28 00:28:26;;;;;;;2.92;2.72;;;;;;;7.68;69.41;99465.75;4069593;29;20204;-65
2022/04/28 00:30:27;;;;;;;2.97;2.78;;;;;;;7.64;69.08;99454.44;4068484;29;20239;-66
2022/04/28 00:32:29;;;;;;;2.63;2.42;;;;;;;7.60;68.89;99455.03;4069323;29;20212;-65
2022/04/28 00:34:30;;;;;;;3.67;3.38;;;;;;;7.57;69.29;99459.00;4068886;29;20593;-66
2022/04/28 00:36:32;;;;;;;3.45;3.15;;;;;;;7.59;69.40;99459.66;4068044;29;20235;-66
2022/04/28 00:38:34;;;;;;;3.60;3.30;;;;;;;7.61;69.50;99448.56;4069126;29;21860;-66
2022/04/28 00:40:35;;;;;;;3.42;2.97;;;;;;;7.61;69.49;99451.28;4069413;29;20727;-65
2022/04/28 00:42:36;;;;;;;3.85;3.55;;;;;;;7.61;69.38;99451.28;4068240;29;20588;-66
2022/04/28 00:44:38;;;;;;;2.70;2.53;;;;;;;7.59;68.73;99451.50;4070247;29;20227;-66
2022/04/28 00:46:43;;;;;;;4.63;4.22;;;;;;;7.56;69.31;99457.34;4067065;29;20211;-67
2022/04/28 00:51:06;;;;;;;4.10;3.78;;;;;;;7.55;68.96;99449.41;4070336;29;20212;-66
2022/04/28 00:53:09;;;;;;;3.42;3.13;;;;;;;7.54;69.05;99453.13;4069220;29;20303;-66
2022/04/28 00:55:11;;;;;;;3.50;3.20;;;;;;;7.49;68.90;99452.94;4085153;28;20326;-66
2022/04/28 00:57:14;;;;;;;3.55;3.35;;;;;;;7.45;69.27;99454.41;4065650;29;20863;-66
2022/04/28 00:59:17;;;;;;;2.88;2.67;;;;;;;7.42;69.60;99455.66;4064108;29;20208;-66
2022/04/28 01:01:18;;;;;;;3.97;3.67;;;;;;;7.40;69.50;99456.91;4064959;29;20219;-66
2022/04/28 01:03:20;;;;;;;3.63;3.40;;;;;;;7.35;69.11;99453.97;4065004;29;20785;-65
2022/04/28 01:05:22;;;;;;;4.22;3.83;;;;;;;7.32;69.30;99454.38;4070061;29;20227;-65
2022/04/28 01:07:24;;;;;;;3.47;3.28;;;;;;;7.31;69.43;99452.69;4069761;29;20296;-65
2022/04/28 01:09:26;;;;;;;4.20;3.72;;;;;;;7.30;69.25;99445.59;4070515;29;20779;-66
2022/04/28 01:11:28;;;;;;;4.55;4.15;;;;;;;7.26;69.34;99455.19;4068567;29;20600;-67
2022/04/28 01:13:29;;;;;;;3.60;3.30;;;;;;;7.21;69.45;99457.72;4070026;29;20587;-66
2022/04/28 01:15:48;;;;;;;3.70;3.42;;;;;;;7.16;69.74;99454.75;4068438;29;20235;-67
2022/04/28 01:17:49;;;;;;;3.40;3.10;;;;;;;7.16;69.94;99460.22;4056279;29;20208;-67
2022/04/28 01:19:51;;;;;;;3.28;3.08;;;;;;;7.19;69.46;99457.06;4067041;29;20204;-66
2022/04/28 01:21:52;;;;;;;3.42;3.22;;;;;;;7.15;70.07;99459.34;4068701;29;20870;-66
2022/04/28 01:23:55;;;;;;;3.72;3.42;;;;;;;7.14;69.59;99459.56;4068995;29;20214;-66
2022/04/28 01:25:57;;;;;;;3.38;3.08;;;;;;;7.10;70.19;99450.97;4069927;29;20238;-66
2022/04/28 01:27:59;;;;;;;3.85;3.55;;;;;;;7.09;69.61;99464.78;4067155;29;20232;-66
2022/04/28 01:30:01;;;;;;;3.53;3.28;;;;;;;7.07;70.15;99464.13;4069174;29;20205;-66
2022/04/28 01:32:03;;;;;;;3.63;3.42;;;;;;;7.05;70.07;99460.78;4065857;29;20234;-66
2022/04/28 01:34:04;;;;;;;3.38;3.08;;;;;;;6.99;69.82;99462.47;4073896;29;20215;-66
2022/04/28 01:36:06;;;;;;;3.08;2.88;;;;;;;6.95;69.53;99457.63;4069220;29;20236;-66
2022/04/28 01:38:08;;;;;;;4.28;3.95;;;;;;;6.92;70.01;99466.19;4071683;29;20213;-66
2022/04/28 01:40:11;;;;;;;2.95;2.75;;;;;;;6.94;69.69;99472.25;4072526;29;20211;-67
2022/04/28 01:42:13;;;;;;;4.53;4.22;;;;;;;6.94;70.10;99466.81;4072314;29;20688;-66
2022/04/28 01:44:15;;;;;;;3.75;2.95;;;;;;;6.97;69.75;99471.88;4071584;29;20315;-67
2022/04/28 01:46:16;;;;;;;3.08;2.90;;;;;;;6.95;69.60;99468.53;4073704;29;20209;-66
2022/04/28 01:48:18;;;;;;;3.35;3.05;;;;;;;6.92;69.73;99468.91;4074351;29;20217;-66
2022/04/28 01:50:20;;;;;;;4.80;3.80;;;;;;;6.90;69.46;99460.13;4072960;29;20588;-66
2022/04/28 01:54:57;;;;;;;3.60;3.40;;;;;;;6.83;69.68;99459.25;4073452;29;20716;-66
2022/04/28 01:56:59;;;;;;;3.35;3.10;;;;;;;6.80;69.83;99459.66;4073361;29;20298;-66
2022/04/28 01:59:00;;;;;;;2.97;2.67;;;;;;;6.78;69.66;99468.03;4071840;29;20303;-66
2022/04/28 02:01:02;;;;;;;3.42;3.13;;;;;;;6.75;69.64;99467.59;4072667;29;20335;-67
2022/04/28 02:03:04;;;;;;;3.00;2.72;;;;;;;6.71;69.75;99460.88;4070210;29;20725;-67
2022/04/28 02:05:07;;;;;;;3.28;2.97;;;;;;;6.71;69.78;99463.59;4072324;29;20232;-66
2022/04/28 02:07:08;;;;;;;3.50;3.20;;;;;;;6.70;69.35;99464.66;4074951;29;20220;-67
2022/04/28 02:09:10;;;;;;;2.75;2.50;;;;;;;6.65;69.67;99464.41;4069535;29;20227;-67
2022/04/28 02:11:14;;;;;;;3.20;2.90;;;;;;;6.61;69.52;99465.84;4076626;29;20231;-66
2022/04/28 02:13:16;;;;;;;4.63;3.38;;;;;;;6.61;69.58;99472.13;4072059;29;20208;-66
2022/04/28 02:15:17;;;;;;;4.03;3.75;;;;;;;6.55;70.17;99466.66;4069154;29;20235;-66
2022/04/28 02:17:20;;;;;;;4.25;3.95;;;;;;;6.54;69.88;99470.41;4072656;29;20333;-66
2022/04/28 02:19:22;;;;;;;3.50;3.20;;;;;;;6.48;69.81;99465.78;4087083;28;20694;-66
2022/04/28 02:21:24;;;;;;;3.63;3.42;;;;;;;6.46;69.92;99478.72;4070607;29;20208;-66
2022/04/28 02:23:25;;;;;;;3.13;2.70;;;;;;;6.45;70.13;99475.19;4072204;29;20295;-66
2022/04/28 02:25:27;;;;;;;3.03;2.83;;;;;;;6.45;69.67;99474.34;4073414;29;20833;-66
2022/04/28 02:27:28;;;;;;;3.25;2.90;;;;;;;6.46;69.55;99467.84;4073424;29;20230;-66
2022/04/28 02:29:30;;;;;;;3.80;3.47;;;;;;;6.45;69.70;99468.91;4071567;29;20677;-65
2022/04/28 02:31:31;;;;;;;3.35;3.15;;;;;;;6.37;69.79;99471.78;4071569;29;20229;-66
2022/04/28 02:33:33;;;;;;;4.00;3.60;;;;;;;6.31;69.30;99476.16;4072992;29;20313;-66
2022/04/28 02:35:35;;;;;;;4.60;4.30;;;;;;;6.25;70.05;99489.69;4072850;29;20242;-66
2022/04/28 02:37:36;;;;;;;3.35;3.15;;;;;;;6.22;70.05;99471.06;4072120;29;20216;-66
2022/04/28 02:39:38;;;;;;;5.18;4.78;;;;;;;6.18;70.33;99480.66;4074851;29;20212;-66
2022/04/28 02:41:40;;;;;;;3.40;3.05;;;;;;;6.23;69.58;99475.47;4072702;29;20201;-67
2022/04/28 02:43:42;;;;;;;3.08;2.80;;;;;;;6.18;69.88;99480.66;4069821;29;20208;-66
2022/04/28 02:45:44;;;;;;;2.70;2.50;;;;;;;6.15;69.79;99478.34;4066337;29;20233;-66
2022/04/28 02:47:46;;;;;;;2.90;2.70;;;;;;;6.10;70.08;99488.94;4072037;29;20212;-66
2022/04/28 02:49:47;;;;;;;3.63;3.28;;;;;;;6.07;70.43;99483.91;4070478;29;20854;-66
2022/04/28 02:51:49;;;;;;;3.88;3.47;;;;;;;6.06;70.21;99483.06;4070857;29;20228;-66
2022/04/28 02:53:50;;;;;;;3.75;3.45;;;;;;;6.05;70.59;99477.84;4070179;29;20212;-66
2022/04/28 02:55:52;;;;;;;2.95;2.72;;;;;;;6.06;70.55;99487.66;4068921;29;20228;-66
2022/04/28 02:57:53;;;;;;;3.15;2.90;;;;;;;6.02;70.33;99480.97;4072374;29;20208;-67
2022/04/28 03:00:04;;;;;;;3.92;3.63;;;;;;;6.02;70.19;99480.97;4055252;29;20208;-66
2022/04/28 03:02:05;;;;;;;2.58;2.38;;;;;;;5.99;70.22;99484.06;4066959;29;20204;-66
2022/04/28 03:04:07;;;;;;;3.67;3.47;;;;;;;5.97;70.60;99488.84;4067880;29;20208;-66
2022/04/28 03:10:49;;;;;;;4.30;3.97;;;;;;;5.96;70.30;99484.47;4070696;29;20211;-66
2022/04/28 03:12:51;;;;;;;3.92;3.63;;;;;;;5.93;70.54;99487.56;4068174;29;20214;-68
2022/04/28 03:14:52;;;;;;;3.30;3.10;;;;;;;5.93;70.71;99488.41;4070770;29;20238;-67
2022/04/28 03:16:54;;;;;;;2.85;2.65;;;;;;;5.90;70.73;99494.22;4071312;29;20305;-67
2022/04/28 03:18:56;;;;;;;3.40;3.10;;;;;;;5.86;70.74;99486.66;4070601;29;20205;-66
2022/04/28 03:20:58;;;;;;;3.05;2.85;;;;;;;5.86;70.62;99486.66;4071669;29;20219;-67
2022/04/28 03:23:00;;;;;;;4.40;4.07;;;;;;;5.83;70.53;99497.94;4072330;29;20212;-67
2022/04/28 03:25:02;;;;;;;3.97;3.67;;;;;;;5.80;70.61;99490.16;4072282;29;20293;-67
2022/04/28 03:27:04;;;;;;;4.15;3.75;;;;;;;5.78;70.54;99497.63;4068921;29;20201;-67
2022/04/28 03:29:06;;;;;;;4.05;3.75;;;;;;;5.72;70.88;99495.69;4071499;29;20211;-67
2022/04/28 03:31:08;;;;;;;3.25;3.05;;;;;;;5.68;71.03;99495.25;4071665;29;20339;-67
2022/04/28 03:33:10;;;;;;;3.38;3.08;;;;;;;5.79;70.85;99500.19;4069624;29;20215;-67
2022/04/28 03:35:12;;;;;;;3.70;3.40;;;;;;;5.73;71.12;99497.38;4067299;29;20232;-67
2022/04/28 03:37:15;;;;;;;3.33;3.13;;;;;;;5.81;70.92;99499.97;4071951;29;20205;-67
2022/04/28 03:39:16;;;;;;;2.38;2.20;;;;;;;5.68;71.19;99507.97;4069421;29;20587;-67
2022/04/28 03:41:18;;;;;;;3.55;3.35;;;;;;;5.65;71.49;99505.66;4066909;29;20611;-68
2022/04/28 03:43:20;;;;;;;3.63;3.42;;;;;;;5.64;71.15;99506.69;4070522;29;20890;-66
2022/04/28 03:45:21;;;;;;;3.67;3.38;;;;;;;5.64;71.40;99509.41;4070170;29;20884;-66
2022/04/28 03:47:23;;;;;;;2.60;2.40;;;;;;;5.61;71.11;99504.34;4069080;29;20215;-67
2022/04/28 03:49:24;;;;;;;3.30;3.00;;;;;;;5.56;71.29;99512.28;4072042;29;20208;-66
2022/04/28 03:51:26;;;;;;;3.28;2.97;;;;;;;5.55;71.35;99511.41;4069809;29;20220;-66
2022/04/28 03:53:27;;;;;;;2.92;2.72;;;;;;;5.49;71.44;99519.50;4071674;29;21014;-66
2022/04/28 03:55:29;;;;;;;3.80;3.60;;;;;;;5.50;71.72;99518.47;4069010;29;20322;-66
2022/04/28 03:57:30;;;;;;;3.35;3.05;;;;;;;5.55;71.48;99521.44;4074007;29;20234;-66
2022/04/28 03:59:32;;;;;;;3.10;2.80;;;;;;;5.56;71.24;99517.69;4068703;29;20209;-68
2022/04/28 04:01:34;;;;;;;3.17;2.97;;;;;;;5.56;71.21;99517.69;4068999;29;20296;-65
2022/04/28 04:03:36;;;;;;;3.85;3.55;;;;;;;5.56;71.22;99520.41;4069259;29;20256;-68
2022/04/28 04:05:37;;;;;;;3.85;3.65;;;;;;;5.52;71.09;99516.38;4069721;29;20231;-68
2022/04/28 04:07:39;;;;;;;3.42;3.22;;;;;;;5.47;71.79;99518.84;4070655;29;20216;-68
2022/04/28 04:09:42;;;;;;;3.72;3.47;;;;;;;5.47;71.71;99521.56;4070510;29;20234;-68
2022/04/28 04:11:43;;;;;;;3.83;3.55;;;;;;;5.45;71.72;99524.47;4066482;29;20224;-68
2022/04/28 04:13:46;;;;;;;3.55;3.30;;;;;;;5.47;71.44;99526.97;4073801;29;20808;-67
2022/04/28 04:15:50;;;;;;;3.22;3.03;;;;;;;5.50;71.09;99527.44;4068205;29;20339;-67
2022/04/28 04:17:52;;;;;;;3.40;3.13;;;;;;;5.44;71.31;99527.38;4074049;29;20627;-67
2022/04/28 04:19:53;;;;;;;3.17;2.97;;;;;;;5.42;71.48;99530.28;4067036;29;20219;-66
2022/04/28 04:21:55;;;;;;;3.80;3.50;;;;;;;5.42;71.59;99532.16;4068914;29;20215;-67
2022/04/28 04:23:57;;;;;;;3.33;3.13;;;;;;;5.33;71.77;99536.00;4067550;29;20219;-66
2022/04/28 04:26:01;;;;;;;7.72;2.97;;;;;;;5.36;71.91;99533.75;4066550;29;20265;-66
2022/04/28 04:28:04;;;;;;;3.70;3.40;;;;;;;5.39;71.64;99537.97;4066126;29;20314;-66
2022/04/28 04:32:33;;;;;;;2.83;2.63;;;;;;;5.36;71.59;99541.09;4048567;29;21044;-66
2022/04/28 04:34:37;;;;;;;3.70;3.40;;;;;;;5.39;71.63;99540.69;4066641;29;20715;-66
2022/04/28 04:36:39;;;;;;;3.88;3.55;;;;;;;5.40;71.70;99545.06;4069254;29;20311;-66
2022/04/28 04:38:41;;;;;;;3.78;3.47;;;;;;;5.33;71.93;99546.88;4067258;29;20983;-67
2022/04/28 04:40:42;;;;;;;4.47;4.07;;;;;;;5.36;72.09;99552.75;4072144;29;20895;-67
2022/04/28 04:42:44;;;;;;;4.05;3.75;;;;;;;5.37;71.77;99550.91;4070829;29;20336;-67
2022/04/28 04:44:45;;;;;;;4.45;4.05;;;;;;;5.40;71.80;99551.34;4069222;29;20307;-66
2022/04/28 04:46:47;;;;;;;8.82;4.18;;;;;;;5.40;72.25;99561.34;4071374;29;20296;-67
2022/04/28 04:48:49;;;;;;;3.03;2.83;;;;;;;5.39;71.95;99559.69;4074328;29;20214;-66
2022/04/28 04:50:52;;;;;;;3.03;2.83;;;;;;;5.41;71.65;99568.47;4069268;29;20212;-66
2022/04/28 04:52:53;;;;;;;3.70;3.47;;;;;;;5.41;71.97;99573.88;4070837;29;20801;-66
2022/04/28 04:54:55;;;;;;;3.60;3.40;;;;;;;5.45;71.60;99569.78;4071539;29;20972;-67
2022/04/28 04:56:57;;;;;;;3.22;2.92;;;;;;;5.47;71.47;99573.13;4070742;29;20253;-66
2022/04/28 04:58:58;;;;;;;2.58;2.38;;;;;;;5.48;71.36;99569.38;4067979;29;20208;-66
2022/04/28 05:01:01;;;;;;;3.22;2.92;;;;;;;5.48;71.58;99577.50;4070858;29;20312;-66
2022/04/28 05:03:03;;;;;;;2.95;2.75;;;;;;;5.50;71.06;99578.19;4068305;29;20294;-66
2022/04/28 05:05:05;;;;;;;3.22;2.92;;;;;;;5.52;71.00;99574.25;4066672;29;20224;-67
2022/04/28 05:07:07;;;;;;;4.10;3.80;;;;;;;5.53;71.19;99577.78;4069366;29;20764;-66
2022/04/28 05:09:08;;;;;;;2.63;2.42;;;;;;;5.53;71.59;99572.34;4069301;29;20212;-66
2022/04/28 05:11:10;;;;;;;4.18;3.88;;;;;;;5.55;71.37;99581.16;4067736;29;20307;-67
2022/04/28 05:13:12;;;;;;;3.63;3.33;;;;;;;5.62;71.25;99582.09;4068576;29;20770;-67
2022/04/28 05:15:13;;;;;;;3.33;3.03;;;;;;;5.69;71.48;99577.56;4071160;29;20236;-66
2022/04/28 05:17:16;;;;;;;3.92;3.63;;;;;;;5.73;71.89;99584.28;4073277;29;20222;-67
2022/04/28 05:19:18;;;;;;;3.97;3.67;;;;;;;5.76;72.62;99590.16;4067307;29;20238;-67
2022/04/28 05:21:19;;;;;;;3.22;3.03;;;;;;;5.90;71.91;99585.75;4064271;29;20723;-65
2022/04/28 05:23:21;;;;;;;3.83;3.53;;;;;;;5.97;71.93;99592.06;4084117;28;20227;-65
2022/04/28 05:25:23;;;;;;;3.85;3.55;;;;;;;6.05;72.08;99597.38;4065458;29;20320;-66
2022/04/28 05:27:24;;;;;;;3.90;3.60;;;;;;;6.14;71.98;99604.34;4067169;29;20214;-65
2022/04/28 05:29:26;;;;;;;4.13;3.78;;;;;;;6.26;71.87;99608.22;4068184;29;21162;-66
2022/04/28 05:31:27;;;;;;;3.80;3.15;;;;;;;6.39;71.83;99608.31;4054355;29;20212;-66
2022/04/28 05:33:29;;;;;;;3.80;3.50;;;;;;;6.55;71.70;99602.63;4068650;29;20216;-65
2022/04/28 05:35:37;;;;;;;2.92;2.72;;;;;;;6.72;72.38;99599.38;4070756;29;20250;-65
2022/04/28 05:37:39;;;;;;;3.70;3.47;;;;;;;6.92;72.55;99610.38;4069966;29;20210;-65
2022/04/28 05:39:43;;;;;;;3.67;3.38;;;;;;;7.14;73.20;99595.63;4071551;29;20402;-65
2022/04/28 05:41:44;;;;;;;5.10;4.30;;;;;;;7.45;73.25;99601.44;4066731;29;20209;-66
2022/04/28 05:46:06;;;;;;;2.85;2.65;;;;;;;7.79;71.71;99614.97;4067509;29;20232;-66
2022/04/28 05:48:09;;;;;;;3.70;3.40;;;;;;;7.92;71.61;99615.00;4070029;29;20270;-66
2022/04/28 05:50:10;;;;;;;2.95;2.75;;;;;;;8.01;70.44;99608.31;4067595;29;20381;-66
2022/04/28 05:52:12;;;;;;;3.03;2.83;;;;;;;8.14;70.09;99616.50;4070375;29;20718;-66
2022/04/28 05:54:14;;;;;;;3.50;3.30;;;;;;;8.34;69.93;99610.06;4069249;29;20607;-65
2022/04/28 05:56:15;;;;;;;5.90;4.00;;;;;;;8.50;70.32;99609.63;4068578;29;20287;-65
2022/04/28 05:58:17;;;;;;;3.47;3.17;;;;;;;8.58;70.86;99611.31;4070651;29;20929;-65
2022/04/28 06:00:19;;;;;;;3.25;3.05;;;;;;;8.76;69.09;99614.25;4067931;29;20304;-65
2022/04/28 06:02:21;;;;;;;2.97;2.78;;;;;;;8.93;69.27;99612.72;4068568;29;20216;-66
2022/04/28 06:04:23;;;;;;;3.67;3.38;;;;;;;8.66;69.27;99608.38;4067140;29;20211;-66
2022/04/28 06:06:24;;;;;;;5.05;4.60;;;;;;;8.41;69.50;99610.06;4067590;29;20301;-65
2022/04/28 06:08:26;;;;;;;3.42;3.22;;;;;;;8.69;69.88;99614.25;4067263;29;20204;-66
2022/04/28 06:10:28;;;;;;;4.00;3.65;;;;;;;8.88;68.98;99618.00;4068023;29;20217;-66
2022/04/28 06:12:29;;;;;;;3.40;2.95;;;;;;;8.81;70.96;99622.66;4066009;29;20239;-66
2022/04/28 06:14:31;;;;;;;3.75;2.13;;;;;;;9.15;69.84;99616.91;4068787;28;20712;-65
2022/04/28 06:16:32;;;;;;;3.42;3.13;;;;;;;9.36;69.03;99622.09;4065004;29;20726;-65
2022/04/28 06:18:34;;;;;;;2.90;2.70;;;;;;;9.51;69.39;99625.41;4066367;29;20209;-66
2022/04/28 06:20:36;;;;;;;3.35;3.05;;;;;;;9.67;69.29;99630.38;4067316;29;20428;-64
2022/04/28 06:22:37;;;;;;;3.13;2.85;;;;;;;9.95;68.50;99633.59;4071339;29;20290;-65
2022/04/28 06:24:39;;;;;;;2.45;2.25;;;;;;;9.93;66.50;99633.81;4069331;29;20252;-66
2022/04/28 06:26:41;;;;;;;3.28;2.97;;;;;;;9.92;68.61;99634.03;4071052;29;20208;-63
2022/04/28 06:28:42;;;;;;;3.65;3.35;;;;;;;10.37;66.63;99643.88;4071410;29;20212;-63
2022/04/28 06:30:44;;;;;;;2.88;2.67;;;;;;;10.67;66.17;99645.75;4070350;29;20212;-66
2022/04/28 06:32:45;;;;;;;4.25;3.85;;;;;;;10.94;65.45;99634.34;4069179;29;20238;-65
2022/04/28 06:34:47;;;;;;;3.00;2.80;;;;;;;11.17;64.44;99647.41;4069689;29;20264;-66
2022/04/28 06:36:49;;;;;;;3.25;3.00;;;;;;;11.34;63.40;99634.78;4085247;28;20302;-65
2022/04/28 06:38:51;;;;;;;3.13;2.92;;;;;;;11.56;62.99;99642.31;4072843;29;20575;-65
2022/04/28 06:40:53;;;;;;;3.67;3.15;;;;;;;11.77;62.23;99643.78;4073174;29;20208;-64
2022/04/28 06:42:54;;;;;;;3.05;2.78;;;;;;;11.96;61.87;99643.53;4070384;29;20216;-64
2022/04/28 06:44:56;;;;;;;3.13;2.92;;;;;;;12.04;61.46;99640.47;4069018;29;20245;-64
2022/04/28 06:46:57;;;;;;;2.85;2.65;;;;;;;11.98;61.45;99646.06;4074930;29;20205;-64
2022/04/28 06:48:59;;;;;;;3.35;3.05;;;;;;;12.17;61.20;99643.03;4073880;29;20208;-64
2022/04/28 06:51:00;;;;;;;3.38;3.08;;;;;;;12.37;60.83;99651.81;4073172;29;20749;-64
2022/04/28 06:53:02;;;;;;;2.15;1.90;;;;;;;12.44;60.44;99652.53;4068857;29;20300;-64
2022/04/28 06:55:05;;;;;;;3.10;2.83;;;;;;;12.49;61.29;99644.44;4070224;29;20282;-64
2022/04/28 06:57:06;;;;;;;3.17;2.92;;;;;;;12.84;60.13;99650.03;4071633;29;20211;-64
2022/04/28 06:59:08;;;;;;;3.17;2.28;;;;;;;12.95;59.46;99650.06;4070491;29;20232;-65
2022/04/28 07:01:09;;;;;;;3.17;2.67;;;;;;;13.26;58.78;99646.13;4071832;29;20576;-64
2022/04/28 07:03:11;;;;;;;2.75;2.45;;;;;;;13.42;59.15;99650.88;4069399;29;20211;-64
2022/04/28 07:05:13;;;;;;;2.65;2.45;;;;;;;13.62;58.92;99640.31;4071409;29;20795;-64
2022/04/28 07:07:14;;;;;;;3.38;3.15;;;;;;;13.66;58.23;99642.38;4074438;29;20872;-62
2022/04/28 07:09:16;;;;;;;2.95;2.63;;;;;;;13.90;57.71;99654.16;4071329;29;20204;-63
2022/04/28 07:11:18;;;;;;;2.45;2.25;;;;;;;13.67;58.67;99655.06;4066559;29;20938;-64
2022/04/28 07:13:19;;;;;;;2.40;2.20;;;;;;;13.95;58.06;99646.84;4069222;29;20238;-63
2022/04/28 07:15:21;;;;;;;2.58;2.38;;;;;;;14.20;57.30;99650.13;4071623;29;20233;-65
2022/04/28 07:17:23;;;;;;;2.58;2.38;;;;;;;13.96;58.14;99654.00;4070681;29;20233;-64
2022/04/28 07:19:24;;;;;;;2.92;2.63;;;;;;;14.19;57.75;99653.13;4067505;29;20677;-64
2022/04/28 07:21:26;;;;;;;2.40;2.20;;;;;;;14.44;57.13;99651.69;4069759;29;20207;-64
2022/04/28 07:23:27;;;;;;;1.83;1.45;;;;;;;14.78;56.21;99652.59;4070906;29;20335;-64
2022/04/28 07:25:29;;;;;;;2.72;2.50;;;;;;;15.13;55.86;99656.78;4069105;29;20232;-66
2022/04/28 07:27:31;;;;;;;1.90;1.80;;;;;;;15.34;55.59;99661.53;4069715;29;20564;-65
2022/04/28 07:29:33;;;;;;;3.55;2.42;;;;;;;15.50;55.40;99657.91;4068651;29;20213;-65
2022/04/28 07:31:35;;;;;;;2.30;2.10;;;;;;;15.16;55.85;99658.19;4071525;29;21000;-63
2022/04/28 07:33:37;;;;;;;2.63;2.15;;;;;;;15.42;55.90;99655.59;4083431;28;20361;-64
2022/04/28 07:35:39;;;;;;;3.08;2.15;;;;;;;15.46;55.38;99667.81;4070320;29;20619;-63
2022/04/28 07:37:40;;;;;;;1.98;1.70;;;;;;;15.85;54.49;99655.66;4070075;29;20703;-64
2022/04/28 07:39:42;;;;;;;2.03;1.60;;;;;;;15.78;54.10;99654.16;4066789;29;20228;-63
2022/04/28 07:41:43;;;;;;;2.35;2.15;;;;;;;15.98;54.18;99658.03;4067690;29;20212;-63
2022/04/28 07:43:45;;;;;;;1.90;1.70;;;;;;;16.17;54.06;99653.84;4070636;29;20208;-63
2022/04/28 07:45:47;;;;;;;2.55;2.35;;;;;;;16.12;53.32;99661.22;4066405;29;20242;-64
2022/04/28 07:47:50;;;;;;;2.85;2.63;;;;;;;16.56;53.85;99658.19;4072478;29;20677;-63
2022/04/28 07:49:51;;;;;;;2.28;2.08;;;;;;;16.85;53.39;99656.81;4068735;29;20296;-63
2022/04/28 07:51:53;;;;;;;2.08;1.88;;;;;;;16.84;51.91;99666.19;4065513;29;20214;-62
2022/04/28 07:53:54;;;;;;;2.53;1.83;;;;;;;17.15;52.11;99660.69;4064638;29;20922;-63
2022/04/28 07:56:11;;;;;;;1.98;1.52;;;;;;;17.03;52.05;99664.72;4065649;29;20227;-63
2022/04/28 07:58:12;;;;;;;2.08;1.88;;;;;;;17.39;51.99;99663.94;4067262;29;20755;-67
2022/04/28 08:00:14;;;;;;;1.55;1.42;;;;;;;17.69;51.04;99661.34;4068070;29;20295;-66
2022/04/28 08:02:16;;;;;;;2.58;1.70;;;;;;;17.46;51.09;99659.00;4067812;29;20214;-65
2022/04/28 08:04:18;;;;;;;1.40;1.30;;;;;;;17.71;49.68;99661.94;4066048;29;20260;-63
2022/04/28 08:06:19;;;;;;;2.00;1.60;;;;;;;16.80;49.78;99669.75;4065920;29;20209;-64
2022/04/28 08:08:21;;;;;;;2.08;1.85;;;;;;;17.18;50.78;99662.09;4060904;28;23233;-63
2022/04/28 08:10:23;;;;;;;1.90;1.52;;;;;;;17.26;50.36;99664.34;4066342;29;20208;-62
2022/04/28 08:12:24;;;;;;;1.85;1.75;;;;;;;17.41;49.71;99661.72;4056543;28;20307;-63
2022/04/28 08:14:46;;;;;;;1.95;1.50;;;;;;;17.90;49.10;99668.66;4066330;29;20756;-62
2022/04/28 08:16:49;;;;;;;2.25;2.05;;;;;;;18.10;48.83;99660.44;4071036;29;20247;-62
2022/04/28 08:18:52;;;;;;;1.35;1.17;;;;;;;18.32;48.69;99664.72;4069876;29;20447;-63
2022/04/28 08:20:54;;;;;;;2.78;1.88;;;;;;;18.24;48.39;99664.41;4071342;29;20845;-63
2022/04/28 08:22:56;;;;;;;1.52;1.42;;;;;;;18.45;48.87;99666.16;4056089;29;20210;-63
2022/04/28 08:24:58;;;;;;;1.20;1.15;;;;;;;18.68;46.97;99671.22;4069408;29;20324;-63
2022/04/28 08:26:59;;;;;;;2.92;1.30;;;;;;;18.30;44.22;99672.50;4070696;29;20568;-63
2022/04/28 08:29:01;;;;;;;1.65;1.40;;;;;;;18.09;44.46;99667.09;4055218;29;20735;-62
2022/04/28 08:31:02;;;;;;;0.98;0.90;;;;;;;17.90;47.56;99666.75;4068791;29;20216;-63
2022/04/28 08:33:05;;;;;;;2.90;2.00;;;;;;;17.62;45.64;99669.06;4065319;29;20290;-63
2022/04/28 08:35:07;;;;;;;4.45;1.27;;;;;;;17.32;45.59;99663.31;4066257;29;20232;-63
2022/04/28 08:37:09;;;;;;;1.50;1.40;;;;;;;16.98;44.88;99674.91;4067716;29;20204;-62
2022/04/28 08:39:11;;;;;;;2.15;1.25;;;;;;;17.42;44.83;99668.94;4066497;29;20204;-62
2022/04/28 08:41:16;;;;;;;1.33;1.13;;;;;;;17.89;44.87;99672.53;4063912;29;20981;-63
2022/04/28 08:43:18;;;;;;;2.17;2.03;;;;;;;18.23;45.04;99665.50;4070648;29;20200;-63
2022/04/28 08:45:28;;;;;;;1.55;1.45;;;;;;;18.24;44.53;99669.94;4073295;29;20231;-63
2022/04/28 08:47:31;;;;;;;1.55;1.10;;;;;;;18.00;45.85;99677.03;4068686;29;20217;-63
2022/04/28 08:49:33;;;;;;;1.15;1.00;;;;;;;18.04;44.67;99669.88;4068949;29;20208;-63
2022/04/28 08:51:34;;;;;;;1.20;1.05;;;;;;;18.29;44.32;99675.50;4070638;29;20363;-63
2022/04/28 08:53:37;;;;;;;1.40;1.30;;;;;;;19.27;44.52;99686.28;4071227;29;20231;-63
2022/04/28 08:55:39;;;;;;;1.98;1.40;;;;;;;19.01;43.42;99682.66;4070218;29;20631;-63
2022/04/28 08:57:40;;;;;;;1.42;1.20;;;;;;;18.86;44.39;99684.56;4066582;29;20286;-63
2022/04/28 08:59:43;;;;;;;1.20;1.08;;;;;;;18.45;44.64;99674.50;4069237;29;20205;-63
2022/04/28 09:01:45;;;;;;;1.13;1.02;;;;;;;19.08;42.73;99668.47;4069519;29;20240;-64
2022/04/28 09:03:46;;;;;;;0.93;0.93;;;;;;;19.59;43.54;99681.28;4073660;29;20231;-65
2022/04/28 09:06:24;;;;;;;1.17;1.00;;;;;;;19.56;41.67;99676.25;4073603;29;20724;-65
2022/04/28 09:08:27;;;;;;;1.23;1.00;;;;;;;19.67;41.61;99673.22;4068421;29;20236;-64
2022/04/28 09:10:30;;;;;;;1.05;0.95;;;;;;;19.16;41.41;99676.25;4072010;29;20303;-64
2022/04/28 09:12:31;;;;;;;1.10;1.00;;;;;;;19.19;40.98;99675.72;4065236;29;21276;-64
2022/04/28 09:14:33;;;;;;;0.95;0.85;;;;;;;19.38;37.95;99679.63;4066466;29;20227;-64
2022/04/28 09:16:41;;;;;;;1.77;1.02;;;;;;;19.84;39.58;99668.16;4065013;29;20208;-64
2022/04/28 09:18:42;;;;;;;0.90;0.80;;;;;;;19.37;38.07;99672.41;4068590;29;20291;-64
2022/04/28 09:20:45;;;;;;;0.98;0.93;;;;;;;19.47;38.57;99666.84;4062769;29;20204;-64
2022/04/28 09:22:51;;;;;;;1.40;1.30;;;;;;;19.13;38.36;99671.28;4063800;29;20204;-63
2022/04/28 09:24:56;;;;;;;1.13;1.00;;;;;;;18.62;37.92;99669.53;4067716;29;20248;-62
2022/04/28 09:26:58;;;;;;;1.00;0.90;;;;;;;18.93;37.84;99671.25;4070333;29;20212;-63
2022/04/28 09:29:02;;;;;;;1.70;1.33;;;;;;;18.91;36.89;99673.47;4070745;29;20665;-63
2022/04/28 09:31:08;;;;;;;0.63;0.63;;;;;;;19.14;36.34;99678.47;4067645;29;20216;-63
2022/04/28 09:33:12;;;;;;;0.80;0.80;;;;;;;19.23;37.15;99669.34;4070276;29;20222;-64
2022/04/28 09:35:13;;;;;;;1.45;1.35;;;;;;;19.59;37.48;99672.94;4070483;29;20706;-64
2022/04/28 09:37:16;;;;;;;0.95;0.95;;;;;;;18.80;35.52;99660.69;4069490;29;20216;-64
2022/04/28 09:44:01;;;;;;;0.82;0.80;;;;;;;19.25;35.42;99669.09;4068220;29;20201;-63
2022/04/28 09:46:07;;;;;;;0.90;0.90;;;;;;;18.94;34.73;99661.81;4071204;29;20241;-67
2022/04/28 09:48:09;;;;;;;1.55;1.45;;;;;;;19.09;35.88;99672.91;4068244;29;20213;-65
2022/04/28 09:50:15;;;;;;;1.08;1.00;;;;;;;19.63;34.80;99671.25;4074855;29;20712;-65
2022/04/28 09:52:17;;;;;;;0.82;0.82;;;;;;;19.37;34.12;99662.13;4067897;29;20224;-65
2022/04/28 09:54:19;;;;;;;1.00;1.00;;;;;;;19.23;33.39;99666.56;4070885;29;20243;-63
2022/04/28 09:56:27;;;;;;;1.02;0.85;;;;;;;19.57;35.66;99658.50;4072731;29;20235;-64
2022/04/28 09:58:38;;;;;;;1.88;0.90;;;;;;;19.88;33.45;99662.84;4071869;29;20211;-64
2022/04/28 10:00:40;;;;;;;0.80;0.77;;;;;;;19.83;33.40;99665.66;4072794;29;20212;-64